DTTX

Details ICAO DTTX (SFA)
Name THYNA
Region Tunisia
Timezone Africa/Tunis (UTC+1.0)
Plans Departing 11
Arriving 8
Stats Elevation 85 ft / 26 m (AMSL)
Location 34.717558° 10.690831°
Runways 1
Magnetic Variation 2.364° E
Sunrise 2017-12-16 06:19:09 UTC / 2017-12-16 07:19:09 Local
Sunset 2017-12-16 16:09:20 UTC / 2017-12-16 17:09:20 Local
Advertisement - Login to hide

Runways

ID Width Length Bearing (true) Bearing (mag) Surface Threshold Offset Overrun Length
15 148 ft / 45 m 9,874 ft / 3,010 m 148.10° 145.74° Concrete 0 ft / 0 m 197 ft / 60 m
33 148 ft / 45 m 9,874 ft / 3,010 m 328.11° 325.75° Concrete 0 ft / 0 m 197 ft / 60 m

Map

Weather


0- 5 10 15 20 25 30 35+ Temperature / ° C

Clouds and Precipitation
Forecast for 2017-12-16 06:00 UTC. Updated 29 minutes ago

Ground ~20,000 ft ~40,000 ft Winds

METAR

DTTX 160100Z 23012KT 9999 FEW030 15/01 Q1011 NOSIG

TAF

Not found

Frequencies

Tower 120.15 MHz SFAX TWR
Approach 123.70 MHz SFAX APP
Warning: Do not use this data for real-world aviation or navigation. No guarantee of current accuracy is given.